createdAt,value
2023-04-18T00:00:08.863Z,1006.68
2023-04-18T00:01:08.824Z,1006.68
2023-04-18T00:02:08.949Z,1006.67
2023-04-18T00:03:09.072Z,1006.68
2023-04-18T00:04:08.959Z,1006.67
2023-04-18T00:05:08.839Z,1006.68
2023-04-18T00:06:08.773Z,1006.66
2023-04-18T00:07:08.759Z,1006.69
2023-04-18T00:08:08.743Z,1006.69
2023-04-18T00:09:08.779Z,1006.64
2023-04-18T00:10:08.736Z,1006.67
2023-04-18T00:11:08.724Z,1006.66
2023-04-18T00:12:08.720Z,1006.68
2023-04-18T00:13:08.695Z,1006.70
2023-04-18T00:14:08.715Z,1006.66
2023-04-18T00:15:08.713Z,1006.68
2023-04-18T00:16:08.701Z,1006.66
2023-04-18T00:17:08.727Z,1006.71
2023-04-18T00:18:08.662Z,1006.67
2023-04-18T00:19:08.643Z,1006.63
2023-04-18T00:20:08.638Z,1006.61
2023-04-18T00:21:08.746Z,1006.62
2023-04-18T00:22:08.591Z,1006.59
2023-04-18T00:23:08.576Z,1006.60
2023-04-18T00:24:08.572Z,1006.58
2023-04-18T00:25:08.571Z,1006.58
2023-04-18T00:26:08.565Z,1006.59
2023-04-18T00:27:08.529Z,1006.57
2023-04-18T00:28:08.519Z,1006.56
2023-04-18T00:29:08.521Z,1006.55
2023-04-18T00:30:08.538Z,1006.59
2023-04-18T00:31:08.557Z,1006.56
2023-04-18T00:32:08.470Z,1006.58
2023-04-18T00:33:08.500Z,1006.56
2023-04-18T00:34:08.460Z,1006.54
2023-04-18T00:35:08.488Z,1006.60
2023-04-18T00:36:08.435Z,1006.60
2023-04-18T00:37:08.410Z,1006.54
2023-04-18T00:38:08.412Z,1006.57
2023-04-18T00:39:08.391Z,1006.62
2023-04-18T00:40:08.425Z,1006.59
2023-04-18T00:41:08.385Z,1006.58
2023-04-18T00:42:08.356Z,1006.60
2023-04-18T00:43:08.359Z,1006.58
2023-04-18T00:44:08.347Z,1006.60
2023-04-18T00:45:08.343Z,1006.59
2023-04-18T00:46:08.374Z,1006.57
2023-04-18T00:47:08.299Z,1006.62
2023-04-18T00:48:08.456Z,1006.58
2023-04-18T00:49:08.280Z,1006.56
2023-04-18T00:50:08.300Z,1006.57
2023-04-18T00:51:08.257Z,1006.55
2023-04-18T00:52:08.250Z,1006.56
2023-04-18T00:53:08.231Z,1006.56
2023-04-18T00:54:08.223Z,1006.50
2023-04-18T00:55:08.255Z,1006.49
2023-04-18T00:56:08.206Z,1006.49
2023-04-18T00:57:08.202Z,1006.50
2023-04-18T00:58:08.183Z,1006.44
2023-04-18T00:59:08.168Z,1006.42
2023-04-18T01:00:08.184Z,1006.41
2023-04-18T01:01:08.247Z,1006.42
2023-04-18T01:02:08.218Z,1006.39
2023-04-18T01:03:08.405Z,1006.40
2023-04-18T01:04:08.205Z,1006.39
2023-04-18T01:05:08.124Z,1006.43
2023-04-18T01:06:08.088Z,1006.36
2023-04-18T01:07:08.077Z,1006.34
2023-04-18T01:08:08.078Z,1006.35
2023-04-18T01:09:08.055Z,1006.39
2023-04-18T01:10:08.080Z,1006.39
2023-04-18T01:11:08.032Z,1006.35
2023-04-18T01:12:08.028Z,1006.38
2023-04-18T01:13:08.010Z,1006.31
2023-04-18T01:14:08.000Z,1006.31
2023-04-18T01:15:08.051Z,1006.33
2023-04-18T01:16:08.018Z,1006.36
2023-04-18T01:17:07.983Z,1006.36
2023-04-18T01:18:07.970Z,1006.36
2023-04-18T01:19:07.937Z,1006.36
2023-04-18T01:20:08.063Z,1006.38
2023-04-18T01:21:07.926Z,1006.41
2023-04-18T01:22:07.910Z,1006.36
2023-04-18T01:23:07.902Z,1006.42
2023-04-18T01:24:07.884Z,1006.37
2023-04-18T01:25:07.900Z,1006.37
2023-04-18T01:26:07.867Z,1006.35
2023-04-18T01:27:07.861Z,1006.40
2023-04-18T01:28:07.909Z,1006.34
2023-04-18T01:29:07.820Z,1006.32
2023-04-18T01:30:07.851Z,1006.36
2023-04-18T01:31:07.821Z,1006.34
2023-04-18T01:32:07.795Z,1006.37
2023-04-18T01:33:07.788Z,1006.36
2023-04-18T01:34:07.799Z,1006.38
2023-04-18T01:35:07.759Z,1006.38
2023-04-18T01:36:07.790Z,1006.36
2023-04-18T01:37:07.739Z,1006.36
2023-04-18T01:38:07.725Z,1006.36
2023-04-18T01:39:07.731Z,1006.33
2023-04-18T01:40:07.717Z,1006.40
2023-04-18T01:41:07.716Z,1006.36
2023-04-18T01:42:07.693Z,1006.38
2023-04-18T01:43:07.687Z,1006.39
2023-04-18T01:44:07.666Z,1006.40
2023-04-18T01:45:07.658Z,1006.38
2023-04-18T01:46:07.681Z,1006.37
2023-04-18T01:47:07.661Z,1006.39
2023-04-18T01:48:07.621Z,1006.38
2023-04-18T01:49:07.608Z,1006.37
2023-04-18T01:50:07.623Z,1006.35
2023-04-18T01:51:07.640Z,1006.34
2023-04-18T01:52:07.587Z,1006.31
2023-04-18T01:53:07.563Z,1006.29
2023-04-18T01:54:07.547Z,1006.33
2023-04-18T01:55:07.553Z,1006.29
2023-04-18T01:56:07.543Z,1006.30
2023-04-18T01:57:07.509Z,1006.28
2023-04-18T01:58:07.501Z,1006.21
2023-04-18T01:59:07.501Z,1006.22
2023-04-18T02:00:07.493Z,1006.24
2023-04-18T02:01:07.575Z,1006.24
2023-04-18T02:02:07.505Z,1006.22
2023-04-18T02:03:07.600Z,1006.20
2023-04-18T02:04:07.467Z,1006.23
2023-04-18T02:05:07.430Z,1006.22
2023-04-18T02:06:07.479Z,1006.20
2023-04-18T02:07:07.403Z,1006.20
2023-04-18T02:08:07.389Z,1006.21
2023-04-18T02:09:07.379Z,1006.21
2023-04-18T02:10:07.364Z,1006.17
2023-04-18T02:11:07.388Z,1006.22
2023-04-18T02:12:07.352Z,1006.20
2023-04-18T02:13:07.347Z,1006.20
2023-04-18T02:14:07.332Z,1006.23
2023-04-18T02:15:07.318Z,1006.21
2023-04-18T02:16:07.380Z,1006.18
2023-04-18T02:17:07.286Z,1006.26
2023-04-18T02:18:07.318Z,1006.17
2023-04-18T02:19:07.274Z,1006.20
2023-04-18T02:20:07.257Z,1006.17
2023-04-18T02:21:07.258Z,1006.23
2023-04-18T02:22:07.248Z,1006.23
2023-04-18T02:23:07.226Z,1006.17
2023-04-18T02:24:07.216Z,1006.24
2023-04-18T02:25:07.221Z,1006.24
2023-04-18T02:26:07.214Z,1006.17
2023-04-18T02:27:07.178Z,1006.19
2023-04-18T02:28:07.164Z,1006.22
2023-04-18T02:29:07.158Z,1006.17
2023-04-18T02:30:07.146Z,1006.17
2023-04-18T02:31:07.172Z,1006.19
2023-04-18T02:32:07.293Z,1006.20
2023-04-18T02:33:07.167Z,1006.15
2023-04-18T02:34:07.096Z,1006.20
2023-04-18T02:35:07.105Z,1006.14
2023-04-18T02:36:07.121Z,1006.20
2023-04-18T02:37:07.071Z,1006.18
2023-04-18T02:38:07.078Z,1006.21
2023-04-18T02:39:07.041Z,1006.20
2023-04-18T02:40:07.035Z,1006.17
2023-04-18T02:41:07.093Z,1006.14
2023-04-18T02:42:07.023Z,1006.18
2023-04-18T02:43:06.995Z,1006.16
2023-04-18T02:44:07.003Z,1006.16
2023-04-18T02:45:06.978Z,1006.16
2023-04-18T02:46:07.040Z,1006.17
2023-04-18T02:47:06.949Z,1006.20
2023-04-18T02:48:06.966Z,1006.21
2023-04-18T02:49:06.926Z,1006.23
2023-04-18T02:50:06.923Z,1006.17
2023-04-18T02:51:06.923Z,1006.21
2023-04-18T02:52:06.896Z,1006.20
2023-04-18T02:53:06.880Z,1006.20
2023-04-18T02:54:06.891Z,1006.23
2023-04-18T02:55:06.856Z,1006.23
2023-04-18T02:56:06.895Z,1006.26
2023-04-18T02:57:06.844Z,1006.28
2023-04-18T02:58:06.852Z,1006.26
2023-04-18T02:59:06.815Z,1006.29
2023-04-18T03:00:06.795Z,1006.33
2023-04-18T03:01:06.835Z,1006.30
2023-04-18T03:02:06.901Z,1006.29
2023-04-18T03:03:06.815Z,1006.32
2023-04-18T03:04:06.754Z,1006.34
2023-04-18T03:05:06.842Z,1006.33
2023-04-18T03:06:06.748Z,1006.32
2023-04-18T03:07:06.725Z,1006.32
2023-04-18T03:08:06.716Z,1006.26
2023-04-18T03:09:06.695Z,1006.28
2023-04-18T03:10:06.806Z,1006.28
2023-04-18T03:11:06.685Z,1006.25
2023-04-18T03:12:06.667Z,1006.29
2023-04-18T03:13:06.662Z,1006.23
2023-04-18T03:14:06.661Z,1006.26
2023-04-18T03:15:06.623Z,1006.22
2023-04-18T03:16:06.651Z,1006.26
2023-04-18T03:17:06.614Z,1006.27
2023-04-18T03:18:06.626Z,1006.23
2023-04-18T03:19:06.599Z,1006.22
2023-04-18T03:20:06.611Z,1006.19
2023-04-18T03:21:06.581Z,1006.24
2023-04-18T03:22:06.556Z,1006.21
2023-04-18T03:23:06.553Z,1006.27
2023-04-18T03:24:06.533Z,1006.24
2023-04-18T03:25:06.521Z,1006.26
2023-04-18T03:26:06.565Z,1006.27
2023-04-18T03:27:06.502Z,1006.27
2023-04-18T03:28:06.486Z,1006.22
2023-04-18T03:29:06.486Z,1006.23
2023-04-18T03:30:06.480Z,1006.28
2023-04-18T03:31:06.532Z,1006.28
2023-04-18T03:32:06.434Z,1006.27
2023-04-18T03:33:06.446Z,1006.30
2023-04-18T03:34:06.416Z,1006.32
2023-04-18T03:35:06.425Z,1006.26
2023-04-18T03:36:06.414Z,1006.27
2023-04-18T03:37:06.386Z,1006.34
2023-04-18T03:38:06.373Z,1006.33
2023-04-18T03:39:06.359Z,1006.37
2023-04-18T03:40:06.352Z,1006.32
2023-04-18T03:41:06.354Z,1006.34
2023-04-18T03:42:06.349Z,1006.38
2023-04-18T03:43:06.330Z,1006.38
2023-04-18T03:44:06.315Z,1006.31
2023-04-18T03:45:06.286Z,1006.36
2023-04-18T03:46:06.407Z,1006.31
2023-04-18T03:47:06.276Z,1006.33
2023-04-18T03:48:06.263Z,1006.32
2023-04-18T03:49:06.252Z,1006.35
2023-04-18T03:50:06.236Z,1006.32
2023-04-18T03:51:06.701Z,1006.33
2023-04-18T03:52:06.208Z,1006.30
2023-04-18T03:53:06.196Z,1006.32
2023-04-18T03:54:06.193Z,1006.35
2023-04-18T03:55:06.181Z,1006.36
2023-04-18T03:56:06.189Z,1006.40
2023-04-18T03:57:06.155Z,1006.33
2023-04-18T03:58:06.168Z,1006.38
2023-04-18T03:59:06.137Z,1006.36
2023-04-18T04:00:06.120Z,1006.41
2023-04-18T04:01:06.599Z,1006.38
2023-04-18T04:02:06.135Z,1006.47
2023-04-18T04:03:06.317Z,1006.40
2023-04-18T04:04:06.232Z,1006.39
2023-04-18T04:05:06.090Z,1006.41
2023-04-18T04:06:06.085Z,1006.36
2023-04-18T04:07:06.049Z,1006.38
2023-04-18T04:08:06.047Z,1006.34
2023-04-18T04:09:06.031Z,1006.32
2023-04-18T04:10:06.015Z,1006.29
2023-04-18T04:11:06.013Z,1006.30
2023-04-18T04:12:05.991Z,1006.29
2023-04-18T04:13:06.038Z,1006.35
2023-04-18T04:14:06.040Z,1006.32
2023-04-18T04:15:05.957Z,1006.38
2023-04-18T04:16:05.986Z,1006.35
2023-04-18T04:17:05.938Z,1006.40
2023-04-18T04:18:06.006Z,1006.42
2023-04-18T04:19:05.925Z,1006.44
2023-04-18T04:20:05.900Z,1006.46
2023-04-18T04:21:05.928Z,1006.44
2023-04-18T04:22:05.879Z,1006.47
2023-04-18T04:23:05.881Z,1006.47
2023-04-18T04:24:05.858Z,1006.49
2023-04-18T04:25:05.844Z,1006.49
2023-04-18T04:26:05.864Z,1006.49
2023-04-18T04:27:05.833Z,1006.55
2023-04-18T04:28:05.830Z,1006.58
2023-04-18T04:29:05.793Z,1006.58
2023-04-18T04:30:05.922Z,1006.57
2023-04-18T04:31:05.808Z,1006.62
2023-04-18T04:32:05.846Z,1006.63
2023-04-18T04:33:05.786Z,1006.63
2023-04-18T04:34:05.746Z,1006.62
2023-04-18T04:35:05.735Z,1006.64
2023-04-18T04:36:05.743Z,1006.64
2023-04-18T04:37:05.716Z,1006.65
2023-04-18T04:38:05.703Z,1006.67
2023-04-18T04:39:05.687Z,1006.67
2023-04-18T04:40:05.680Z,1006.68
2023-04-18T04:41:05.685Z,1006.69
2023-04-18T04:42:05.654Z,1006.68
2023-04-18T04:43:05.638Z,1006.68
2023-04-18T04:44:05.638Z,1006.65
2023-04-18T04:45:05.764Z,1006.65
2023-04-18T04:46:05.663Z,1006.65
2023-04-18T04:47:05.594Z,1006.67
2023-04-18T04:48:05.617Z,1006.66
2023-04-18T04:49:05.573Z,1006.69
2023-04-18T04:50:05.571Z,1006.65
2023-04-18T04:51:05.574Z,1006.64
2023-04-18T04:52:05.541Z,1006.62
2023-04-18T04:53:05.521Z,1006.68
2023-04-18T04:54:05.526Z,1006.69
2023-04-18T04:55:05.513Z,1006.70
2023-04-18T04:56:05.814Z,1006.70
2023-04-18T04:57:05.492Z,1006.68
2023-04-18T04:58:05.491Z,1006.71
2023-04-18T04:59:05.722Z,1006.76
2023-04-18T05:00:05.451Z,1006.67
2023-04-18T05:01:05.490Z,1006.72
2023-04-18T05:02:05.663Z,1006.75
2023-04-18T05:03:05.545Z,1006.75
2023-04-18T05:04:05.578Z,1006.78
2023-04-18T05:05:05.395Z,1006.83
2023-04-18T05:06:05.393Z,1006.84
2023-04-18T05:07:05.364Z,1006.78
2023-04-18T05:08:05.356Z,1006.79
2023-04-18T05:09:05.339Z,1006.74
2023-04-18T05:10:05.338Z,1006.81
2023-04-18T05:11:05.337Z,1006.78
2023-04-18T05:12:05.319Z,1006.79
2023-04-18T05:13:05.295Z,1006.82
2023-04-18T05:14:05.296Z,1006.79
2023-04-18T05:15:05.273Z,1006.78
2023-04-18T05:16:05.289Z,1006.81
2023-04-18T05:17:05.264Z,1006.83
2023-04-18T05:18:05.365Z,1006.78
2023-04-18T05:19:05.231Z,1006.82
2023-04-18T05:20:05.239Z,1006.79
2023-04-18T05:21:05.220Z,1006.81
2023-04-18T05:22:05.192Z,1006.79
2023-04-18T05:23:05.189Z,1006.80
2023-04-18T05:24:05.177Z,1006.85
2023-04-18T05:25:05.162Z,1006.83
2023-04-18T05:26:05.190Z,1006.88
2023-04-18T05:27:05.141Z,1006.81
2023-04-18T05:28:05.121Z,1006.88
2023-04-18T05:29:05.120Z,1006.87
2023-04-18T05:30:05.125Z,1006.82
2023-04-18T05:31:05.202Z,1006.85
2023-04-18T05:33:16.322Z,1006.89
2023-04-18T05:34:16.459Z,1006.90
2023-04-18T05:36:27.535Z,1006.88
2023-04-18T05:37:27.491Z,1006.84
2023-04-18T05:38:27.491Z,1006.86
2023-04-18T05:39:27.472Z,1006.79
2023-04-18T05:40:27.481Z,1006.83
2023-04-18T05:41:27.455Z,1006.84
2023-04-18T05:42:27.500Z,1006.83
2023-04-18T05:43:27.432Z,1006.87
2023-04-18T05:44:27.429Z,1006.87
2023-04-18T05:45:27.442Z,1006.88
2023-04-18T05:46:27.462Z,1006.84
2023-04-18T05:47:27.407Z,1006.85
2023-04-18T05:48:27.409Z,1006.82
2023-04-18T05:49:27.359Z,1006.84
2023-04-18T05:50:27.357Z,1006.91
2023-04-18T05:51:27.376Z,1006.88
2023-04-18T05:52:27.332Z,1006.88
2023-04-18T05:53:27.337Z,1006.89
2023-04-18T05:54:27.309Z,1006.92
2023-04-18T05:56:39.760Z,1006.94
2023-04-18T05:57:39.485Z,1006.95
2023-04-18T05:58:39.478Z,1006.96
2023-04-18T05:59:39.461Z,1006.99
2023-04-18T06:00:39.471Z,1006.99
2023-04-18T06:01:39.446Z,1006.98
2023-04-18T06:02:39.575Z,1006.94
2023-04-18T06:03:39.614Z,1006.98
2023-04-18T06:04:39.622Z,1006.98
2023-04-18T06:05:39.448Z,1007.02
2023-04-18T06:06:39.406Z,1007.05
2023-04-18T06:07:39.378Z,1007.06
2023-04-18T06:08:39.368Z,1007.04
2023-04-18T06:09:39.353Z,1007.04
2023-04-18T06:10:39.434Z,1007.09
2023-04-18T06:11:39.328Z,1007.10
2023-04-18T06:15:02.038Z,1007.09
2023-04-18T06:16:01.825Z,1007.13
2023-04-18T06:17:01.721Z,1007.16
2023-04-18T06:18:01.793Z,1007.17
2023-04-18T06:19:01.725Z,1007.15
2023-04-18T06:20:01.703Z,1007.23
2023-04-18T06:21:01.993Z,1007.13
2023-04-18T06:22:01.695Z,1007.24
2023-04-18T06:23:01.653Z,1007.20
2023-04-18T06:25:14.182Z,1007.26
2023-04-18T06:26:13.882Z,1007.23
2023-04-18T06:27:27.930Z,1007.23
2023-04-18T06:28:14.835Z,1007.24
2023-04-18T06:30:26.262Z,1007.27
2023-04-18T06:31:26.087Z,1007.26
2023-04-18T06:32:26.168Z,1007.27
2023-04-18T06:33:25.999Z,1007.26
2023-04-18T06:34:26.009Z,1007.30
2023-04-18T06:35:26.749Z,1007.28
2023-04-18T06:36:25.967Z,1007.32
2023-04-18T06:37:25.975Z,1007.35
2023-04-18T06:38:25.945Z,1007.35
2023-04-18T06:39:25.945Z,1007.34
2023-04-18T06:40:25.934Z,1007.33
2023-04-18T06:42:38.630Z,1007.28
2023-04-18T06:44:51.050Z,1007.27
2023-04-18T06:45:51.068Z,1007.31
2023-04-18T06:46:51.011Z,1007.27
2023-04-18T06:47:51.035Z,1007.33
2023-04-18T06:48:51.554Z,1007.30
2023-04-18T06:49:50.998Z,1007.27
2023-04-18T06:50:50.992Z,1007.30
2023-04-18T06:51:50.963Z,1007.29
2023-04-18T06:52:50.949Z,1007.34
2023-04-18T06:53:50.934Z,1007.38
2023-04-18T06:54:50.929Z,1007.42
2023-04-18T06:55:51.144Z,1007.40
2023-04-18T06:56:50.931Z,1007.42
2023-04-18T06:57:50.899Z,1007.38
2023-04-18T06:58:50.884Z,1007.43
2023-04-18T06:59:50.868Z,1007.42
2023-04-18T07:02:02.788Z,1007.43
2023-04-18T07:03:02.565Z,1007.44
2023-04-18T07:04:02.673Z,1007.43
2023-04-18T07:05:02.456Z,1007.46
2023-04-18T07:06:02.447Z,1007.43
2023-04-18T07:08:13.650Z,1007.46
2023-04-18T07:09:13.616Z,1007.49
2023-04-18T07:10:13.606Z,1007.52
2023-04-18T07:11:13.696Z,1007.50
2023-04-18T07:12:13.629Z,1007.51
2023-04-18T07:15:36.346Z,1007.52
2023-04-18T07:17:48.356Z,1007.49
2023-04-18T07:18:48.282Z,1007.52
2023-04-18T07:19:48.268Z,1007.53
2023-04-18T07:20:48.303Z,1007.54
2023-04-18T07:21:48.243Z,1007.55
2023-04-18T07:22:48.242Z,1007.59
2023-04-18T07:23:48.228Z,1007.54
2023-04-18T07:24:48.213Z,1007.51
2023-04-18T07:25:48.220Z,1007.55
2023-04-18T07:26:48.206Z,1007.56
2023-04-18T07:27:48.174Z,1007.59
2023-04-18T07:28:48.176Z,1007.58
2023-04-18T07:29:48.154Z,1007.56
2023-04-18T07:30:48.208Z,1007.63
2023-04-18T07:31:48.133Z,1007.58
2023-04-18T07:32:48.145Z,1007.64
2023-04-18T07:33:48.119Z,1007.61
2023-04-18T07:34:48.097Z,1007.64
2023-04-18T07:35:48.125Z,1007.63
2023-04-18T07:36:48.255Z,1007.68
2023-04-18T07:37:48.067Z,1007.65
2023-04-18T07:38:48.054Z,1007.66
2023-04-18T07:39:48.060Z,1007.62
2023-04-18T07:42:00.262Z,1007.68
2023-04-18T07:43:00.228Z,1007.59
2023-04-18T07:44:00.223Z,1007.62
2023-04-18T07:45:00.207Z,1007.63
2023-04-18T07:46:00.274Z,1007.63
2023-04-18T07:47:00.190Z,1007.65
2023-04-18T07:48:12.326Z,1007.63
2023-04-18T07:50:12.399Z,1007.72
2023-04-18T07:52:23.603Z,1007.69
2023-04-18T07:53:23.590Z,1007.69
2023-04-18T07:54:23.559Z,1007.68
2023-04-18T07:55:23.550Z,1007.69
2023-04-18T07:57:35.769Z,1007.69
2023-04-18T07:58:35.740Z,1007.76
2023-04-18T07:59:35.725Z,1007.74
2023-04-18T08:00:35.718Z,1007.73
2023-04-18T08:01:35.721Z,1007.73
2023-04-18T08:02:35.793Z,1007.74
2023-04-18T08:03:35.817Z,1007.72
2023-04-18T08:04:35.896Z,1007.80
2023-04-18T08:05:35.753Z,1007.75
2023-04-18T08:06:35.707Z,1007.72
2023-04-18T08:07:35.670Z,1007.75
2023-04-18T08:08:35.637Z,1007.76
2023-04-18T08:09:35.617Z,1007.78
2023-04-18T08:10:35.624Z,1007.74
2023-04-18T08:11:35.617Z,1007.80
2023-04-18T08:12:35.590Z,1007.75
2023-04-18T08:13:35.601Z,1007.78
2023-04-18T08:14:35.559Z,1007.76
2023-04-18T08:15:35.551Z,1007.76
2023-04-18T08:16:35.591Z,1007.75
2023-04-18T08:17:35.534Z,1007.77
2023-04-18T08:19:47.020Z,1007.75
2023-04-18T08:20:46.788Z,1007.71
2023-04-18T08:21:46.733Z,1007.70
2023-04-18T08:23:02.308Z,1007.72
2023-04-18T08:23:47.700Z,1007.78
2023-04-18T08:25:03.345Z,1007.71
2023-04-18T08:25:47.672Z,1007.70
2023-04-18T08:26:46.691Z,1007.81
2023-04-18T08:27:46.650Z,1007.73
2023-04-18T08:29:57.953Z,1007.75
2023-04-18T08:30:57.846Z,1007.80
2023-04-18T08:31:57.885Z,1007.85
2023-04-18T08:32:57.900Z,1007.80
2023-04-18T08:33:57.823Z,1007.79
2023-04-18T08:34:57.804Z,1007.78
2023-04-18T08:37:09.358Z,1007.74
2023-04-18T08:38:09.366Z,1007.78
2023-04-18T08:39:09.335Z,1007.79
2023-04-18T08:40:09.325Z,1007.84
2023-04-18T08:41:09.335Z,1007.83
2023-04-18T08:42:09.305Z,1007.81
2023-04-18T08:44:20.521Z,1007.87
2023-04-18T08:46:32.743Z,1007.79
2023-04-18T08:47:32.736Z,1007.79
2023-04-18T08:48:32.708Z,1007.81
2023-04-18T08:50:43.923Z,1007.86
2023-04-18T08:51:43.922Z,1007.77
2023-04-18T08:52:43.887Z,1007.84
2023-04-18T08:53:44.055Z,1007.84
2023-04-18T08:54:43.872Z,1007.77
2023-04-18T08:55:43.859Z,1007.76
2023-04-18T08:56:43.867Z,1007.74
2023-04-18T08:57:43.841Z,1007.77
2023-04-18T08:58:43.820Z,1007.73
2023-04-18T08:59:45.091Z,1007.82
2023-04-18T09:00:43.793Z,1007.81
2023-04-18T09:01:43.847Z,1007.82
2023-04-18T09:02:43.978Z,1007.76
2023-04-18T09:03:43.795Z,1007.75
2023-04-18T09:04:43.820Z,1007.85
2023-04-18T09:05:43.768Z,1007.75
2023-04-18T09:06:43.754Z,1007.82
2023-04-18T09:08:54.958Z,1007.71
2023-04-18T09:09:54.922Z,1007.75
2023-04-18T09:10:54.913Z,1007.71
2023-04-18T09:11:54.950Z,1007.80
2023-04-18T09:12:54.894Z,1007.77
2023-04-18T09:13:54.895Z,1007.74
2023-04-18T09:14:54.893Z,1007.74
2023-04-18T09:15:54.856Z,1007.77
2023-04-18T09:16:54.897Z,1007.74
2023-04-18T09:17:54.834Z,1007.74
2023-04-18T09:18:54.823Z,1007.70
2023-04-18T09:19:54.812Z,1007.68
2023-04-18T09:20:54.801Z,1007.70
2023-04-18T09:21:54.805Z,1007.73
2023-04-18T09:22:54.777Z,1007.69
2023-04-18T09:23:54.764Z,1007.69
2023-04-18T09:24:54.775Z,1007.65
2023-04-18T09:25:54.748Z,1007.63
2023-04-18T09:28:06.980Z,1007.60
2023-04-18T09:29:06.929Z,1007.65
2023-04-18T09:30:06.936Z,1007.63
2023-04-18T09:31:06.933Z,1007.63
2023-04-18T09:32:06.921Z,1007.61
2023-04-18T09:33:07.119Z,1007.63
2023-04-18T09:34:06.908Z,1007.59
2023-04-18T09:35:06.876Z,1007.62
2023-04-18T09:36:06.856Z,1007.54
2023-04-18T09:37:06.964Z,1007.62
2023-04-18T09:38:06.835Z,1007.59
2023-04-18T09:39:06.826Z,1007.58
2023-04-18T09:40:06.925Z,1007.65
2023-04-18T09:41:06.807Z,1007.56
2023-04-18T09:42:06.821Z,1007.54
2023-04-18T09:43:06.780Z,1007.56
2023-04-18T09:44:06.770Z,1007.57
2023-04-18T09:45:06.806Z,1007.55
2023-04-18T09:46:06.774Z,1007.53
2023-04-18T09:47:06.753Z,1007.51
2023-04-18T09:48:06.807Z,1007.50
2023-04-18T09:49:08.408Z,1007.55
2023-04-18T09:50:06.712Z,1007.49
2023-04-18T09:51:06.717Z,1007.51
2023-04-18T09:52:06.698Z,1007.56
2023-04-18T09:53:06.666Z,1007.61
2023-04-18T09:54:06.660Z,1007.60
2023-04-18T09:55:06.674Z,1007.48
2023-04-18T09:56:06.664Z,1007.52
2023-04-18T09:57:06.645Z,1007.47
2023-04-18T09:58:06.609Z,1007.44
2023-04-18T09:59:06.599Z,1007.44
2023-04-18T10:00:06.596Z,1007.48
2023-04-18T10:01:06.609Z,1007.56
2023-04-18T10:02:06.658Z,1007.55
2023-04-18T10:03:06.580Z,1007.51
2023-04-18T10:04:06.729Z,1007.46
2023-04-18T10:05:06.603Z,1007.44
2023-04-18T10:06:06.519Z,1007.45
2023-04-18T10:08:18.715Z,1007.57
2023-04-18T10:09:18.700Z,1007.51
2023-04-18T10:10:18.690Z,1007.54
2023-04-18T10:11:20.166Z,1007.51
2023-04-18T10:12:18.692Z,1007.54
2023-04-18T10:13:18.657Z,1007.57
2023-04-18T10:14:18.778Z,1007.57
2023-04-18T10:15:18.626Z,1007.56
2023-04-18T10:16:18.701Z,1007.62
2023-04-18T10:17:19.042Z,1007.65
2023-04-18T10:18:18.630Z,1007.63
2023-04-18T10:19:18.579Z,1007.58
2023-04-18T10:20:18.569Z,1007.57
2023-04-18T10:21:18.563Z,1007.63
2023-04-18T10:22:18.573Z,1007.53
2023-04-18T10:23:18.537Z,1007.62
2023-04-18T10:24:18.538Z,1007.56
2023-04-18T10:25:18.511Z,1007.52
2023-04-18T10:26:18.505Z,1007.49
2023-04-18T10:27:18.617Z,1007.54
2023-04-18T10:28:18.484Z,1007.54
2023-04-18T10:29:18.466Z,1007.55
2023-04-18T10:31:30.699Z,1007.57
2023-04-18T10:32:30.706Z,1007.66
2023-04-18T10:33:32.276Z,1007.59
2023-04-18T10:34:30.640Z,1007.58
2023-04-18T10:35:30.628Z,1007.72
2023-04-18T10:36:30.630Z,1007.61
2023-04-18T10:37:31.044Z,1007.58
2023-04-18T10:38:30.591Z,1007.66
2023-04-18T10:39:30.591Z,1007.53
2023-04-18T10:40:30.573Z,1007.52
2023-04-18T10:42:41.865Z,1007.55
2023-04-18T10:43:41.777Z,1007.49
2023-04-18T10:44:41.758Z,1007.47
2023-04-18T10:45:41.752Z,1007.77
2023-04-18T10:46:41.756Z,1007.54
2023-04-18T10:47:42.107Z,1007.42
2023-04-18T10:48:41.716Z,1007.43
2023-04-18T10:49:41.708Z,1007.40
2023-04-18T10:50:41.688Z,1007.39
2023-04-18T10:51:41.680Z,1007.38
2023-04-18T10:52:41.789Z,1007.44
2023-04-18T10:53:41.658Z,1007.48
2023-04-18T10:54:41.653Z,1007.49
2023-04-18T10:55:41.645Z,1007.44
2023-04-18T10:56:41.642Z,1007.52
2023-04-18T10:57:41.632Z,1007.43
2023-04-18T10:58:41.775Z,1007.47
2023-04-18T10:59:41.596Z,1007.50
2023-04-18T11:00:41.604Z,1007.45
2023-04-18T11:01:41.596Z,1007.44
2023-04-18T11:02:41.691Z,1007.45
2023-04-18T11:03:41.641Z,1007.51
2023-04-18T11:04:41.537Z,1007.57
2023-04-18T11:05:41.527Z,1007.55
2023-04-18T11:06:41.533Z,1007.59
2023-04-18T11:07:41.501Z,1007.55
2023-04-18T11:09:53.217Z,1007.47
2023-04-18T11:10:53.203Z,1007.49
2023-04-18T11:13:05.462Z,1007.60
2023-04-18T11:14:05.545Z,1007.56
2023-04-18T11:15:05.389Z,1007.64
2023-04-18T11:16:05.390Z,1007.55
2023-04-18T11:17:05.380Z,1007.60
2023-04-18T11:18:05.387Z,1007.57
2023-04-18T11:19:05.343Z,1007.55
2023-04-18T11:20:05.334Z,1007.57
2023-04-18T11:21:05.327Z,1007.61
2023-04-18T11:22:05.322Z,1007.51
2023-04-18T11:23:05.294Z,1007.50
2023-04-18T11:24:05.289Z,1007.48
2023-04-18T11:25:05.291Z,1007.54
2023-04-18T11:26:05.258Z,1007.52
2023-04-18T11:27:05.286Z,1007.50
2023-04-18T11:28:05.254Z,1007.49
2023-04-18T11:29:05.226Z,1007.46
2023-04-18T11:30:05.262Z,1007.47
2023-04-18T11:32:17.545Z,1007.50
2023-04-18T11:33:17.464Z,1007.56
2023-04-18T11:34:17.407Z,1007.62
2023-04-18T11:36:28.752Z,1007.61
2023-04-18T11:37:28.626Z,1007.50
2023-04-18T11:38:28.745Z,1007.53
2023-04-18T11:39:28.584Z,1007.55
2023-04-18T11:40:28.578Z,1007.57
2023-04-18T11:41:29.371Z,1007.56
2023-04-18T11:42:28.567Z,1007.61
2023-04-18T11:43:28.549Z,1007.55
2023-04-18T11:44:28.525Z,1007.56
2023-04-18T11:45:28.692Z,1007.54
2023-04-18T11:46:28.528Z,1007.59
2023-04-18T11:47:28.550Z,1007.60
2023-04-18T11:48:28.483Z,1007.60
2023-04-18T11:49:28.503Z,1007.60
2023-04-18T11:50:28.469Z,1007.62
2023-04-18T11:51:28.476Z,1007.71
2023-04-18T11:52:28.456Z,1007.74
2023-04-18T11:53:28.486Z,1007.71
2023-04-18T11:54:28.415Z,1007.72
2023-04-18T11:55:28.448Z,1007.69
2023-04-18T12:01:45.866Z,1007.73
2023-04-18T12:02:16.552Z,1007.75
2023-04-18T12:03:14.068Z,1007.75
2023-04-18T12:04:13.318Z,1007.69
2023-04-18T12:05:13.276Z,1007.64
2023-04-18T12:06:12.977Z,1007.66
2023-04-18T12:07:12.947Z,1007.69
2023-04-18T12:08:12.925Z,1007.69
2023-04-18T12:09:12.906Z,1007.69
2023-04-18T12:10:12.894Z,1007.64
2023-04-18T12:11:12.886Z,1007.67
2023-04-18T12:12:12.895Z,1007.68
2023-04-18T12:13:12.862Z,1007.65
2023-04-18T12:15:24.085Z,1007.65
2023-04-18T12:17:35.373Z,1007.72
2023-04-18T12:18:35.269Z,1007.62
2023-04-18T12:19:35.256Z,1007.66
2023-04-18T12:20:35.239Z,1007.71
2023-04-18T12:21:35.247Z,1007.67
2023-04-18T12:22:35.225Z,1007.63
2023-04-18T12:24:47.431Z,1007.73
2023-04-18T12:25:47.438Z,1007.59
2023-04-18T12:26:47.443Z,1007.62
2023-04-18T12:27:47.410Z,1007.60
2023-04-18T12:28:47.477Z,1007.69
2023-04-18T12:29:47.377Z,1007.61
2023-04-18T12:30:47.363Z,1007.63
2023-04-18T12:31:47.410Z,1007.64
2023-04-18T12:32:47.526Z,1007.60
2023-04-18T12:33:47.336Z,1007.62
2023-04-18T12:34:47.312Z,1007.65
2023-04-18T12:35:49.397Z,1007.59
2023-04-18T12:36:47.307Z,1007.58
2023-04-18T12:37:47.293Z,1007.61
2023-04-18T12:38:47.267Z,1007.60
2023-04-18T12:39:47.271Z,1007.62
2023-04-18T12:40:47.257Z,1007.62
2023-04-18T12:41:49.070Z,1007.56
2023-04-18T12:42:47.222Z,1007.53
2023-04-18T12:43:47.225Z,1007.60
2023-04-18T12:44:48.005Z,1007.59
2023-04-18T12:45:47.208Z,1007.64
2023-04-18T12:47:59.485Z,1007.56
2023-04-18T12:48:59.393Z,1007.55
2023-04-18T12:49:59.385Z,1007.58
2023-04-18T12:50:59.370Z,1007.52
2023-04-18T12:51:59.380Z,1007.46
2023-04-18T12:52:59.358Z,1007.52
2023-04-18T12:53:59.356Z,1007.52